Terminal Aerodrome Forecast
Issued by NWS

Home | Current Version | Previous Version | Text Only | Print | Product List | Glossary On
Versions: 1 2 3 4 5 6 7 8 9 10 11 12
000
FTUS45 KGJT 261734
TAFVEL
TAF
KVEL 261734Z 2618/2718 16004KT P6SM SKC
     FM262200 23009KT P6SM SCT250
     FM270200 33006KT P6SM SCT200
     FM271600 20009G15KT P6SM FEW250=

USA.gov is the U.S. government's official web portal to all federal, state and local government web resources and services.